MacClesfield, North Carolina
Current Conditions -  °F | °C
As of 3:43 PM on Thursday 27 Nov 2014 (Local Time) from KRWI Reporting Station
Few Clouds Few Clouds  
Wind Chill: 40°   Ceiling: Unl
Heat Index: 46°   Visibility: 10mi
Dew Point: 39°   Wind: 14mph
Humidity: 76%   Direction: 300°WNW
Pressure: 30.07"   Gusts: NA
Location:  35.75°N, 77.67°W
Report Text: KRWI 272043Z AUTO 30012KT 10SM FEW020 08/04 A3007 RMK AO2 T00780039
Loading
Personal Weather Stations






























Interactive Weather Map New forecast layout! Learn more

10-Day Weather Forecast

Advertisements
Track Severe Weather on mobile